sensor_id;sensor_type;location;lat;lon;timestamp;P1;durP1;ratioP1;P2;durP2;ratioP2
9467;SDS011;4772;52.382;9.752;2023-07-31T00:00:27;6.57;;;2.80;;
9467;SDS011;4772;52.382;9.752;2023-07-31T00:02:53;5.73;;;2.50;;
9467;SDS011;4772;52.382;9.752;2023-07-31T00:05:20;3.07;;;2.37;;
9467;SDS011;4772;52.382;9.752;2023-07-31T00:07:46;5.33;;;2.87;;
9467;SDS011;4772;52.382;9.752;2023-07-31T00:10:12;4.67;;;2.40;;
9467;SDS011;4772;52.382;9.752;2023-07-31T00:12:38;2.50;;;2.30;;
9467;SDS011;4772;52.382;9.752;2023-07-31T00:15:05;3.27;;;2.37;;
9467;SDS011;4772;52.382;9.752;2023-07-31T00:17:31;6.13;;;2.67;;
9467;SDS011;4772;52.382;9.752;2023-07-31T00:19:57;5.47;;;2.40;;
9467;SDS011;4772;52.382;9.752;2023-07-31T00:22:23;3.23;;;2.40;;
9467;SDS011;4772;52.382;9.752;2023-07-31T00:24:49;3.90;;;2.53;;
9467;SDS011;4772;52.382;9.752;2023-07-31T00:27:15;3.93;;;2.30;;
9467;SDS011;4772;52.382;9.752;2023-07-31T00:29:41;3.63;;;1.90;;
9467;SDS011;4772;52.382;9.752;2023-07-31T00:32:07;5.10;;;2.70;;
9467;SDS011;4772;52.382;9.752;2023-07-31T00:34:33;2.57;;;2.00;;
9467;SDS011;4772;52.382;9.752;2023-07-31T00:36:59;2.90;;;2.33;;
9467;SDS011;4772;52.382;9.752;2023-07-31T00:39:25;4.07;;;2.23;;
9467;SDS011;4772;52.382;9.752;2023-07-31T00:41:51;3.07;;;2.20;;
9467;SDS011;4772;52.382;9.752;2023-07-31T00:44:17;4.83;;;2.37;;
9467;SDS011;4772;52.382;9.752;2023-07-31T00:46:43;3.73;;;2.40;;
9467;SDS011;4772;52.382;9.752;2023-07-31T00:49:10;3.77;;;2.33;;
9467;SDS011;4772;52.382;9.752;2023-07-31T00:51:36;4.10;;;2.50;;
9467;SDS011;4772;52.382;9.752;2023-07-31T00:54:02;4.43;;;2.30;;
9467;SDS011;4772;52.382;9.752;2023-07-31T00:56:28;5.13;;;2.60;;
9467;SDS011;4772;52.382;9.752;2023-07-31T00:58:54;2.30;;;2.10;;
9467;SDS011;4772;52.382;9.752;2023-07-31T01:01:21;4.17;;;2.43;;
9467;SDS011;4772;52.382;9.752;2023-07-31T01:03:47;5.87;;;2.50;;
9467;SDS011;4772;52.382;9.752;2023-07-31T01:06:30;2.90;;;2.20;;
9467;SDS011;4772;52.382;9.752;2023-07-31T01:08:58;4.37;;;2.30;;
9467;SDS011;4772;52.382;9.752;2023-07-31T01:11:28;4.83;;;2.13;;
9467;SDS011;4772;52.382;9.752;2023-07-31T01:13:57;3.03;;;2.23;;
9467;SDS011;4772;52.382;9.752;2023-07-31T01:16:24;4.20;;;2.23;;
9467;SDS011;4772;52.382;9.752;2023-07-31T01:18:50;3.17;;;2.20;;
9467;SDS011;4772;52.382;9.752;2023-07-31T01:21:29;3.43;;;2.50;;
9467;SDS011;4772;52.382;9.752;2023-07-31T01:24:08;4.67;;;2.50;;
9467;SDS011;4772;52.382;9.752;2023-07-31T01:26:40;3.80;;;2.20;;
9467;SDS011;4772;52.382;9.752;2023-07-31T01:29:10;2.53;;;2.27;;
9467;SDS011;4772;52.382;9.752;2023-07-31T01:31:38;3.87;;;2.17;;
9467;SDS011;4772;52.382;9.752;2023-07-31T01:34:05;4.40;;;1.87;;
9467;SDS011;4772;52.382;9.752;2023-07-31T01:36:31;4.37;;;1.90;;
9467;SDS011;4772;52.382;9.752;2023-07-31T01:38:58;2.10;;;1.90;;
9467;SDS011;4772;52.382;9.752;2023-07-31T01:41:25;3.20;;;1.97;;
9467;SDS011;4772;52.382;9.752;2023-07-31T01:43:51;3.17;;;2.13;;
9467;SDS011;4772;52.382;9.752;2023-07-31T01:46:17;4.07;;;2.23;;
9467;SDS011;4772;52.382;9.752;2023-07-31T01:48:43;3.20;;;2.00;;
9467;SDS011;4772;52.382;9.752;2023-07-31T01:51:09;7.57;;;2.40;;
9467;SDS011;4772;52.382;9.752;2023-07-31T01:53:35;2.27;;;1.73;;
9467;SDS011;4772;52.382;9.752;2023-07-31T01:56:01;3.50;;;2.20;;
9467;SDS011;4772;52.382;9.752;2023-07-31T01:58:27;3.23;;;2.33;;
9467;SDS011;4772;52.382;9.752;2023-07-31T02:00:53;4.23;;;2.30;;
9467;SDS011;4772;52.382;9.752;2023-07-31T02:03:19;3.30;;;2.00;;
9467;SDS011;4772;52.382;9.752;2023-07-31T02:05:48;2.00;;;1.77;;
9467;SDS011;4772;52.382;9.752;2023-07-31T02:08:15;2.20;;;1.70;;
9467;SDS011;4772;52.382;9.752;2023-07-31T02:10:41;2.73;;;1.97;;
9467;SDS011;4772;52.382;9.752;2023-07-31T02:13:07;3.40;;;1.97;;
9467;SDS011;4772;52.382;9.752;2023-07-31T02:15:33;2.73;;;1.50;;
9467;SDS011;4772;52.382;9.752;2023-07-31T02:17:59;1.97;;;1.87;;
9467;SDS011;4772;52.382;9.752;2023-07-31T02:20:25;2.47;;;1.67;;
9467;SDS011;4772;52.382;9.752;2023-07-31T02:22:51;1.60;;;1.50;;
9467;SDS011;4772;52.382;9.752;2023-07-31T02:25:17;2.97;;;1.67;;
9467;SDS011;4772;52.382;9.752;2023-07-31T02:27:43;3.03;;;1.90;;
9467;SDS011;4772;52.382;9.752;2023-07-31T02:30:09;2.57;;;1.90;;
9467;SDS011;4772;52.382;9.752;2023-07-31T02:32:35;4.23;;;1.83;;
9467;SDS011;4772;52.382;9.752;2023-07-31T02:35:02;2.60;;;1.80;;
9467;SDS011;4772;52.382;9.752;2023-07-31T02:37:27;1.63;;;1.50;;
9467;SDS011;4772;52.382;9.752;2023-07-31T02:39:54;2.30;;;1.70;;
9467;SDS011;4772;52.382;9.752;2023-07-31T02:42:20;1.77;;;1.67;;
9467;SDS011;4772;52.382;9.752;2023-07-31T02:44:46;2.53;;;1.70;;
9467;SDS011;4772;52.382;9.752;2023-07-31T02:47:12;2.73;;;1.80;;
9467;SDS011;4772;52.382;9.752;2023-07-31T02:49:38;2.23;;;1.60;;
9467;SDS011;4772;52.382;9.752;2023-07-31T02:52:04;3.67;;;1.63;;
9467;SDS011;4772;52.382;9.752;2023-07-31T02:54:30;1.70;;;1.53;;
9467;SDS011;4772;52.382;9.752;2023-07-31T02:56:56;4.73;;;1.50;;
9467;SDS011;4772;52.382;9.752;2023-07-31T02:59:22;1.63;;;1.53;;
9467;SDS011;4772;52.382;9.752;2023-07-31T03:01:48;1.90;;;1.80;;
9467;SDS011;4772;52.382;9.752;2023-07-31T03:04:14;3.63;;;1.80;;
9467;SDS011;4772;52.382;9.752;2023-07-31T03:06:40;2.03;;;1.50;;
9467;SDS011;4772;52.382;9.752;2023-07-31T03:09:06;2.70;;;1.40;;
9467;SDS011;4772;52.382;9.752;2023-07-31T03:11:32;2.93;;;1.53;;
9467;SDS011;4772;52.382;9.752;2023-07-31T03:13:58;1.47;;;1.37;;
9467;SDS011;4772;52.382;9.752;2023-07-31T03:16:24;2.90;;;1.53;;
9467;SDS011;4772;52.382;9.752;2023-07-31T03:18:50;1.60;;;1.50;;
9467;SDS011;4772;52.382;9.752;2023-07-31T03:21:16;1.50;;;1.40;;
9467;SDS011;4772;52.382;9.752;2023-07-31T03:23:42;2.20;;;1.40;;
9467;SDS011;4772;52.382;9.752;2023-07-31T03:26:08;1.60;;;1.50;;
9467;SDS011;4772;52.382;9.752;2023-07-31T03:28:34;1.50;;;1.40;;
9467;SDS011;4772;52.382;9.752;2023-07-31T03:31:00;2.67;;;1.50;;
9467;SDS011;4772;52.382;9.752;2023-07-31T03:33:27;1.93;;;1.70;;
9467;SDS011;4772;52.382;9.752;2023-07-31T03:35:53;1.87;;;1.50;;
9467;SDS011;4772;52.382;9.752;2023-07-31T03:38:19;1.77;;;1.50;;
9467;SDS011;4772;52.382;9.752;2023-07-31T03:40:45;1.43;;;1.33;;
9467;SDS011;4772;52.382;9.752;2023-07-31T03:43:11;1.80;;;1.70;;
9467;SDS011;4772;52.382;9.752;2023-07-31T03:45:37;1.53;;;1.43;;
9467;SDS011;4772;52.382;9.752;2023-07-31T03:48:03;3.00;;;1.60;;
9467;SDS011;4772;52.382;9.752;2023-07-31T03:50:30;1.70;;;1.60;;
9467;SDS011;4772;52.382;9.752;2023-07-31T03:52:56;3.10;;;1.60;;
9467;SDS011;4772;52.382;9.752;2023-07-31T03:55:22;2.57;;;1.67;;
9467;SDS011;4772;52.382;9.752;2023-07-31T03:57:48;1.97;;;1.70;;
9467;SDS011;4772;52.382;9.752;2023-07-31T04:00:14;1.57;;;1.47;;
9467;SDS011;4772;52.382;9.752;2023-07-31T04:02:40;1.70;;;1.60;;
9467;SDS011;4772;52.382;9.752;2023-07-31T04:05:06;2.80;;;1.80;;
9467;SDS011;4772;52.382;9.752;2023-07-31T04:07:32;1.80;;;1.70;;
9467;SDS011;4772;52.382;9.752;2023-07-31T04:09:59;2.67;;;1.87;;
9467;SDS011;4772;52.382;9.752;2023-07-31T04:12:25;1.83;;;1.67;;
9467;SDS011;4772;52.382;9.752;2023-07-31T04:14:51;2.00;;;1.80;;
9467;SDS011;4772;52.382;9.752;2023-07-31T04:17:20;2.63;;;1.83;;
9467;SDS011;4772;52.382;9.752;2023-07-31T04:19:46;2.20;;;1.70;;
9467;SDS011;4772;52.382;9.752;2023-07-31T04:22:12;1.70;;;1.60;;
9467;SDS011;4772;52.382;9.752;2023-07-31T04:24:38;2.80;;;1.50;;
9467;SDS011;4772;52.382;9.752;2023-07-31T04:27:04;2.60;;;1.57;;
9467;SDS011;4772;52.382;9.752;2023-07-31T04:29:30;2.93;;;2.10;;
9467;SDS011;4772;52.382;9.752;2023-07-31T04:31:56;2.00;;;1.70;;
9467;SDS011;4772;52.382;9.752;2023-07-31T04:34:22;1.77;;;1.67;;
9467;SDS011;4772;52.382;9.752;2023-07-31T04:36:48;2.30;;;1.80;;
9467;SDS011;4772;52.382;9.752;2023-07-31T04:39:14;2.20;;;1.90;;
9467;SDS011;4772;52.382;9.752;2023-07-31T04:41:40;3.90;;;1.93;;
9467;SDS011;4772;52.382;9.752;2023-07-31T04:44:06;2.30;;;2.10;;
9467;SDS011;4772;52.382;9.752;2023-07-31T04:46:32;1.83;;;1.73;;
9467;SDS011;4772;52.382;9.752;2023-07-31T04:48:58;2.23;;;1.70;;
9467;SDS011;4772;52.382;9.752;2023-07-31T04:51:24;1.87;;;1.70;;
9467;SDS011;4772;52.382;9.752;2023-07-31T04:53:50;1.50;;;1.40;;
9467;SDS011;4772;52.382;9.752;2023-07-31T04:56:16;2.47;;;1.93;;
9467;SDS011;4772;52.382;9.752;2023-07-31T04:58:42;3.33;;;2.40;;
9467;SDS011;4772;52.382;9.752;2023-07-31T05:01:08;2.77;;;1.57;;
9467;SDS011;4772;52.382;9.752;2023-07-31T05:03:34;1.70;;;1.60;;
9467;SDS011;4772;52.382;9.752;2023-07-31T05:06:00;2.20;;;1.73;;
9467;SDS011;4772;52.382;9.752;2023-07-31T05:08:26;2.30;;;1.53;;
9467;SDS011;4772;52.382;9.752;2023-07-31T05:10:52;2.67;;;1.50;;
9467;SDS011;4772;52.382;9.752;2023-07-31T05:13:18;1.50;;;1.40;;
9467;SDS011;4772;52.382;9.752;2023-07-31T05:15:45;1.70;;;1.60;;
9467;SDS011;4772;52.382;9.752;2023-07-31T05:18:11;1.67;;;1.40;;
9467;SDS011;4772;52.382;9.752;2023-07-31T05:20:37;3.30;;;1.60;;
9467;SDS011;4772;52.382;9.752;2023-07-31T05:23:03;2.70;;;1.60;;
9467;SDS011;4772;52.382;9.752;2023-07-31T05:25:29;1.70;;;1.50;;
9467;SDS011;4772;52.382;9.752;2023-07-31T05:27:55;1.63;;;1.50;;
9467;SDS011;4772;52.382;9.752;2023-07-31T05:30:21;1.53;;;1.43;;
9467;SDS011;4772;52.382;9.752;2023-07-31T05:32:47;1.60;;;1.50;;
9467;SDS011;4772;52.382;9.752;2023-07-31T05:35:13;1.87;;;1.60;;
9467;SDS011;4772;52.382;9.752;2023-07-31T05:37:39;2.07;;;1.67;;
9467;SDS011;4772;52.382;9.752;2023-07-31T05:40:05;1.97;;;1.77;;
9467;SDS011;4772;52.382;9.752;2023-07-31T05:42:31;2.73;;;2.40;;
9467;SDS011;4772;52.382;9.752;2023-07-31T05:44:57;4.57;;;2.47;;
9467;SDS011;4772;52.382;9.752;2023-07-31T05:47:23;5.53;;;3.27;;
9467;SDS011;4772;52.382;9.752;2023-07-31T05:49:49;5.07;;;3.40;;
9467;SDS011;4772;52.382;9.752;2023-07-31T05:52:17;4.53;;;3.90;;
9467;SDS011;4772;52.382;9.752;2023-07-31T05:54:43;9.53;;;4.90;;
9467;SDS011;4772;52.382;9.752;2023-07-31T05:57:11;5.80;;;4.93;;
9467;SDS011;4772;52.382;9.752;2023-07-31T05:59:37;8.63;;;5.83;;
9467;SDS011;4772;52.382;9.752;2023-07-31T06:02:03;10.67;;;7.30;;
9467;SDS011;4772;52.382;9.752;2023-07-31T06:04:29;9.23;;;7.57;;
9467;SDS011;4772;52.382;9.752;2023-07-31T06:06:55;10.53;;;8.20;;
9467;SDS011;4772;52.382;9.752;2023-07-31T06:09:22;9.70;;;8.50;;
9467;SDS011;4772;52.382;9.752;2023-07-31T06:11:48;12.30;;;8.70;;
9467;SDS011;4772;52.382;9.752;2023-07-31T06:14:14;12.67;;;9.80;;
9467;SDS011;4772;52.382;9.752;2023-07-31T06:16:40;13.63;;;10.27;;
9467;SDS011;4772;52.382;9.752;2023-07-31T06:19:06;15.47;;;10.30;;
9467;SDS011;4772;52.382;9.752;2023-07-31T06:21:32;14.40;;;11.37;;
9467;SDS011;4772;52.382;9.752;2023-07-31T06:23:58;12.87;;;10.60;;
9467;SDS011;4772;52.382;9.752;2023-07-31T06:26:24;12.67;;;10.30;;
9467;SDS011;4772;52.382;9.752;2023-07-31T06:28:51;15.07;;;11.23;;
9467;SDS011;4772;52.382;9.752;2023-07-31T06:31:17;13.70;;;10.93;;
9467;SDS011;4772;52.382;9.752;2023-07-31T06:33:45;12.40;;;9.83;;
9467;SDS011;4772;52.382;9.752;2023-07-31T06:36:11;10.77;;;9.63;;
9467;SDS011;4772;52.382;9.752;2023-07-31T06:38:37;11.67;;;9.87;;
9467;SDS011;4772;52.382;9.752;2023-07-31T06:41:03;12.03;;;9.87;;
9467;SDS011;4772;52.382;9.752;2023-07-31T06:43:29;12.90;;;8.93;;
9467;SDS011;4772;52.382;9.752;2023-07-31T06:45:55;12.87;;;8.97;;
9467;SDS011;4772;52.382;9.752;2023-07-31T06:48:21;11.33;;;8.27;;
9467;SDS011;4772;52.382;9.752;2023-07-31T06:50:47;11.23;;;9.40;;
9467;SDS011;4772;52.382;9.752;2023-07-31T06:53:13;11.53;;;9.50;;
9467;SDS011;4772;52.382;9.752;2023-07-31T06:55:39;12.63;;;9.77;;
9467;SDS011;4772;52.382;9.752;2023-07-31T06:58:05;11.83;;;9.37;;
9467;SDS011;4772;52.382;9.752;2023-07-31T07:00:31;13.27;;;9.47;;
9467;SDS011;4772;52.382;9.752;2023-07-31T07:02:58;15.63;;;9.53;;
9467;SDS011;4772;52.382;9.752;2023-07-31T07:05:24;12.00;;;10.10;;
9467;SDS011;4772;52.382;9.752;2023-07-31T07:07:50;15.43;;;11.07;;
9467;SDS011;4772;52.382;9.752;2023-07-31T07:10:17;15.27;;;11.20;;
9467;SDS011;4772;52.382;9.752;2023-07-31T07:12:43;15.17;;;11.27;;
9467;SDS011;4772;52.382;9.752;2023-07-31T07:15:09;20.83;;;11.60;;
9467;SDS011;4772;52.382;9.752;2023-07-31T07:17:35;15.70;;;11.67;;
9467;SDS011;4772;52.382;9.752;2023-07-31T07:20:02;18.00;;;12.37;;
9467;SDS011;4772;52.382;9.752;2023-07-31T07:22:28;20.60;;;12.00;;
9467;SDS011;4772;52.382;9.752;2023-07-31T07:24:54;17.10;;;12.70;;
9467;SDS011;4772;52.382;9.752;2023-07-31T07:27:21;19.70;;;12.90;;
9467;SDS011;4772;52.382;9.752;2023-07-31T07:29:47;16.70;;;13.03;;
9467;SDS011;4772;52.382;9.752;2023-07-31T07:32:13;21.30;;;12.63;;
9467;SDS011;4772;52.382;9.752;2023-07-31T07:34:39;18.27;;;12.23;;
9467;SDS011;4772;52.382;9.752;2023-07-31T07:37:05;17.63;;;12.50;;
9467;SDS011;4772;52.382;9.752;2023-07-31T07:39:31;17.33;;;12.70;;
9467;SDS011;4772;52.382;9.752;2023-07-31T07:41:57;15.40;;;11.43;;
9467;SDS011;4772;52.382;9.752;2023-07-31T07:44:23;17.17;;;11.90;;
9467;SDS011;4772;52.382;9.752;2023-07-31T07:46:49;16.87;;;11.83;;
9467;SDS011;4772;52.382;9.752;2023-07-31T07:49:15;15.37;;;10.73;;
9467;SDS011;4772;52.382;9.752;2023-07-31T07:51:41;15.63;;;11.40;;
9467;SDS011;4772;52.382;9.752;2023-07-31T07:54:07;17.27;;;10.63;;
9467;SDS011;4772;52.382;9.752;2023-07-31T07:56:33;15.53;;;10.13;;
9467;SDS011;4772;52.382;9.752;2023-07-31T07:59:01;15.07;;;9.93;;
9467;SDS011;4772;52.382;9.752;2023-07-31T08:01:27;14.03;;;9.63;;
9467;SDS011;4772;52.382;9.752;2023-07-31T08:03:53;11.73;;;8.30;;
9467;SDS011;4772;52.382;9.752;2023-07-31T08:06:19;13.40;;;9.30;;
9467;SDS011;4772;52.382;9.752;2023-07-31T08:08:45;12.83;;;8.43;;
9467;SDS011;4772;52.382;9.752;2023-07-31T08:11:11;15.60;;;7.70;;
9467;SDS011;4772;52.382;9.752;2023-07-31T08:13:37;12.90;;;7.63;;
9467;SDS011;4772;52.382;9.752;2023-07-31T08:16:04;10.03;;;6.80;;
9467;SDS011;4772;52.382;9.752;2023-07-31T08:18:33;11.03;;;6.57;;
9467;SDS011;4772;52.382;9.752;2023-07-31T08:20:59;11.83;;;7.70;;
9467;SDS011;4772;52.382;9.752;2023-07-31T08:23:25;11.17;;;7.40;;
9467;SDS011;4772;52.382;9.752;2023-07-31T08:25:51;11.17;;;6.60;;
9467;SDS011;4772;52.382;9.752;2023-07-31T08:28:17;11.33;;;6.50;;
9467;SDS011;4772;52.382;9.752;2023-07-31T08:30:43;9.83;;;6.43;;
9467;SDS011;4772;52.382;9.752;2023-07-31T08:33:09;11.10;;;6.10;;
9467;SDS011;4772;52.382;9.752;2023-07-31T08:35:35;9.23;;;6.03;;
9467;SDS011;4772;52.382;9.752;2023-07-31T08:38:02;9.87;;;5.70;;
9467;SDS011;4772;52.382;9.752;2023-07-31T08:40:28;12.97;;;5.80;;
9467;SDS011;4772;52.382;9.752;2023-07-31T08:42:54;10.73;;;6.17;;
9467;SDS011;4772;52.382;9.752;2023-07-31T08:45:27;9.77;;;6.37;;
9467;SDS011;4772;52.382;9.752;2023-07-31T08:47:53;9.77;;;6.13;;
9467;SDS011;4772;52.382;9.752;2023-07-31T08:50:20;11.83;;;6.00;;
9467;SDS011;4772;52.382;9.752;2023-07-31T08:52:47;9.60;;;6.50;;
9467;SDS011;4772;52.382;9.752;2023-07-31T08:55:13;12.87;;;6.93;;
9467;SDS011;4772;52.382;9.752;2023-07-31T08:57:39;10.97;;;6.30;;
9467;SDS011;4772;52.382;9.752;2023-07-31T09:00:07;10.07;;;6.40;;
9467;SDS011;4772;52.382;9.752;2023-07-31T09:03:19;23.80;;;6.23;;
9467;SDS011;4772;52.382;9.752;2023-07-31T09:05:20;10.13;;;6.20;;
9467;SDS011;4772;52.382;9.752;2023-07-31T09:07:47;8.30;;;5.30;;
9467;SDS011;4772;52.382;9.752;2023-07-31T09:10:13;9.30;;;6.47;;
9467;SDS011;4772;52.382;9.752;2023-07-31T09:12:39;9.10;;;5.57;;
9467;SDS011;4772;52.382;9.752;2023-07-31T09:15:05;7.73;;;6.37;;
9467;SDS011;4772;52.382;9.752;2023-07-31T09:17:32;7.53;;;5.10;;
9467;SDS011;4772;52.382;9.752;2023-07-31T09:20:12;9.07;;;5.20;;
9467;SDS011;4772;52.382;9.752;2023-07-31T09:22:38;8.20;;;4.97;;
9467;SDS011;4772;52.382;9.752;2023-07-31T09:25:20;8.40;;;4.90;;
9467;SDS011;4772;52.382;9.752;2023-07-31T09:30:16;8.67;;;5.17;;
9467;SDS011;4772;52.382;9.752;2023-07-31T09:32:43;7.60;;;4.77;;
9467;SDS011;4772;52.382;9.752;2023-07-31T09:37:41;6.23;;;4.33;;
9467;SDS011;4772;52.382;9.752;2023-07-31T09:40:07;11.53;;;4.67;;
9467;SDS011;4772;52.382;9.752;2023-07-31T09:42:33;8.47;;;4.50;;
9467;SDS011;4772;52.382;9.752;2023-07-31T09:45:09;5.17;;;4.23;;
9467;SDS011;4772;52.382;9.752;2023-07-31T09:47:35;5.20;;;4.33;;
9467;SDS011;4772;52.382;9.752;2023-07-31T09:50:01;6.37;;;4.03;;
9467;SDS011;4772;52.382;9.752;2023-07-31T09:52:32;10.23;;;4.10;;
9467;SDS011;4772;52.382;9.752;2023-07-31T09:54:58;6.03;;;3.80;;
9467;SDS011;4772;52.382;9.752;2023-07-31T09:57:24;4.03;;;3.30;;
9467;SDS011;4772;52.382;9.752;2023-07-31T09:59:51;4.43;;;3.17;;
9467;SDS011;4772;52.382;9.752;2023-07-31T10:02:21;4.37;;;2.80;;
9467;SDS011;4772;52.382;9.752;2023-07-31T10:04:50;3.43;;;2.80;;
9467;SDS011;4772;52.382;9.752;2023-07-31T10:07:17;3.77;;;3.13;;
9467;SDS011;4772;52.382;9.752;2023-07-31T10:09:44;2.80;;;2.50;;
9467;SDS011;4772;52.382;9.752;2023-07-31T10:12:10;4.47;;;2.60;;
9467;SDS011;4772;52.382;9.752;2023-07-31T10:14:38;3.07;;;2.67;;
9467;SDS011;4772;52.382;9.752;2023-07-31T10:17:05;3.27;;;2.77;;
9467;SDS011;4772;52.382;9.752;2023-07-31T10:19:31;4.03;;;2.60;;
9467;SDS011;4772;52.382;9.752;2023-07-31T10:21:57;3.97;;;2.63;;
9467;SDS011;4772;52.382;9.752;2023-07-31T10:24:24;3.27;;;2.53;;
9467;SDS011;4772;52.382;9.752;2023-07-31T10:26:50;2.93;;;2.67;;
9467;SDS011;4772;52.382;9.752;2023-07-31T10:29:17;4.47;;;2.53;;
9467;SDS011;4772;52.382;9.752;2023-07-31T10:31:45;3.90;;;2.70;;
9467;SDS011;4772;52.382;9.752;2023-07-31T10:34:11;3.30;;;2.50;;
9467;SDS011;4772;52.382;9.752;2023-07-31T10:36:38;3.33;;;2.67;;
9467;SDS011;4772;52.382;9.752;2023-07-31T10:39:04;2.60;;;2.40;;
9467;SDS011;4772;52.382;9.752;2023-07-31T10:41:30;2.60;;;2.40;;
9467;SDS011;4772;52.382;9.752;2023-07-31T10:43:57;3.60;;;2.27;;
9467;SDS011;4772;52.382;9.752;2023-07-31T10:46:24;2.40;;;2.20;;
9467;SDS011;4772;52.382;9.752;2023-07-31T10:48:57;2.87;;;2.53;;
9467;SDS011;4772;52.382;9.752;2023-07-31T10:51:24;2.80;;;2.23;;
9467;SDS011;4772;52.382;9.752;2023-07-31T10:54:18;3.60;;;2.40;;
9467;SDS011;4772;52.382;9.752;2023-07-31T10:56:45;2.97;;;2.00;;
9467;SDS011;4772;52.382;9.752;2023-07-31T10:59:14;2.60;;;2.40;;
9467;SDS011;4772;52.382;9.752;2023-07-31T11:01:52;3.00;;;2.20;;
9467;SDS011;4772;52.382;9.752;2023-07-31T11:04:25;2.57;;;2.20;;
9467;SDS011;4772;52.382;9.752;2023-07-31T11:06:55;2.70;;;2.10;;
9467;SDS011;4772;52.382;9.752;2023-07-31T11:09:21;2.50;;;2.30;;
9467;SDS011;4772;52.382;9.752;2023-07-31T11:11:47;2.63;;;2.20;;
9467;SDS011;4772;52.382;9.752;2023-07-31T11:14:16;2.60;;;2.40;;
9467;SDS011;4772;52.382;9.752;2023-07-31T11:16:42;5.30;;;2.37;;
9467;SDS011;4772;52.382;9.752;2023-07-31T11:19:08;3.13;;;2.40;;
9467;SDS011;4772;52.382;9.752;2023-07-31T11:21:34;4.03;;;2.37;;
9467;SDS011;4772;52.382;9.752;2023-07-31T11:24:00;3.27;;;2.40;;
9467;SDS011;4772;52.382;9.752;2023-07-31T11:26:26;2.60;;;2.23;;
9467;SDS011;4772;52.382;9.752;2023-07-31T11:28:52;3.67;;;2.33;;
9467;SDS011;4772;52.382;9.752;2023-07-31T11:31:18;2.87;;;2.37;;
9467;SDS011;4772;52.382;9.752;2023-07-31T11:33:45;3.93;;;2.40;;
9467;SDS011;4772;52.382;9.752;2023-07-31T11:36:18;4.53;;;2.63;;
9467;SDS011;4772;52.382;9.752;2023-07-31T11:38:44;3.17;;;2.33;;
9467;SDS011;4772;52.382;9.752;2023-07-31T11:41:13;3.03;;;2.70;;
9467;SDS011;4772;52.382;9.752;2023-07-31T11:43:39;4.57;;;2.70;;
9467;SDS011;4772;52.382;9.752;2023-07-31T11:46:05;3.87;;;2.40;;
9467;SDS011;4772;52.382;9.752;2023-07-31T11:48:37;3.57;;;2.50;;
9467;SDS011;4772;52.382;9.752;2023-07-31T11:51:07;3.53;;;2.47;;
9467;SDS011;4772;52.382;9.752;2023-07-31T11:56:39;2.97;;;2.37;;
9467;SDS011;4772;52.382;9.752;2023-07-31T11:59:05;2.93;;;2.63;;
9467;SDS011;4772;52.382;9.752;2023-07-31T12:01:33;4.33;;;2.50;;
9467;SDS011;4772;52.382;9.752;2023-07-31T12:03:59;4.57;;;2.53;;
9467;SDS011;4772;52.382;9.752;2023-07-31T12:06:35;2.17;;;1.97;;
9467;SDS011;4772;52.382;9.752;2023-07-31T12:09:02;3.60;;;3.10;;
9467;SDS011;4772;52.382;9.752;2023-07-31T12:11:29;3.30;;;2.20;;
9467;SDS011;4772;52.382;9.752;2023-07-31T12:13:55;2.93;;;2.40;;
9467;SDS011;4772;52.382;9.752;2023-07-31T12:16:22;2.87;;;2.20;;
9467;SDS011;4772;52.382;9.752;2023-07-31T12:18:51;2.40;;;2.20;;
9467;SDS011;4772;52.382;9.752;2023-07-31T12:21:18;3.63;;;1.93;;
9467;SDS011;4772;52.382;9.752;2023-07-31T12:23:45;2.30;;;1.80;;
9467;SDS011;4772;52.382;9.752;2023-07-31T12:28:39;3.10;;;2.20;;
9467;SDS011;4772;52.382;9.752;2023-07-31T12:31:06;2.90;;;1.83;;
9467;SDS011;4772;52.382;9.752;2023-07-31T12:33:33;1.93;;;1.73;;
9467;SDS011;4772;52.382;9.752;2023-07-31T12:36:00;2.87;;;1.97;;
9467;SDS011;4772;52.382;9.752;2023-07-31T12:38:26;2.00;;;1.70;;
9467;SDS011;4772;52.382;9.752;2023-07-31T12:40:52;2.47;;;2.00;;
9467;SDS011;4772;52.382;9.752;2023-07-31T12:43:18;2.10;;;1.87;;
9467;SDS011;4772;52.382;9.752;2023-07-31T12:45:44;2.43;;;1.60;;
9467;SDS011;4772;52.382;9.752;2023-07-31T12:48:12;3.30;;;1.83;;
9467;SDS011;4772;52.382;9.752;2023-07-31T12:50:38;3.10;;;1.60;;
9467;SDS011;4772;52.382;9.752;2023-07-31T12:53:05;1.90;;;1.80;;
9467;SDS011;4772;52.382;9.752;2023-07-31T12:55:31;2.50;;;1.70;;
9467;SDS011;4772;52.382;9.752;2023-07-31T12:57:59;1.77;;;1.67;;
9467;SDS011;4772;52.382;9.752;2023-07-31T13:00:25;2.23;;;1.57;;
9467;SDS011;4772;52.382;9.752;2023-07-31T13:02:51;1.60;;;1.50;;
9467;SDS011;4772;52.382;9.752;2023-07-31T13:05:17;1.50;;;1.40;;
9467;SDS011;4772;52.382;9.752;2023-07-31T13:07:45;1.83;;;1.40;;
9467;SDS011;4772;52.382;9.752;2023-07-31T13:10:11;1.50;;;1.40;;
9467;SDS011;4772;52.382;9.752;2023-07-31T13:12:37;1.50;;;1.40;;
9467;SDS011;4772;52.382;9.752;2023-07-31T13:15:04;1.30;;;1.10;;
9467;SDS011;4772;52.382;9.752;2023-07-31T13:17:30;1.77;;;1.00;;
9467;SDS011;4772;52.382;9.752;2023-07-31T13:19:56;1.10;;;1.10;;
9467;SDS011;4772;52.382;9.752;2023-07-31T13:22:22;1.63;;;1.43;;
9467;SDS011;4772;52.382;9.752;2023-07-31T13:24:48;2.07;;;1.20;;
9467;SDS011;4772;52.382;9.752;2023-07-31T13:27:14;2.90;;;1.37;;
9467;SDS011;4772;52.382;9.752;2023-07-31T13:29:46;1.67;;;1.13;;
9467;SDS011;4772;52.382;9.752;2023-07-31T13:32:12;1.50;;;1.40;;
9467;SDS011;4772;52.382;9.752;2023-07-31T13:34:38;1.80;;;1.50;;
9467;SDS011;4772;52.382;9.752;2023-07-31T13:37:04;1.40;;;1.30;;
9467;SDS011;4772;52.382;9.752;2023-07-31T13:39:33;1.50;;;1.40;;
9467;SDS011;4772;52.382;9.752;2023-07-31T13:41:59;1.43;;;1.20;;
9467;SDS011;4772;52.382;9.752;2023-07-31T13:44:26;1.37;;;1.27;;
9467;SDS011;4772;52.382;9.752;2023-07-31T13:46:52;1.37;;;1.13;;
9467;SDS011;4772;52.382;9.752;2023-07-31T13:49:18;2.40;;;1.20;;
9467;SDS011;4772;52.382;9.752;2023-07-31T13:51:44;1.40;;;1.10;;
9467;SDS011;4772;52.382;9.752;2023-07-31T13:54:10;2.87;;;1.30;;
9467;SDS011;4772;52.382;9.752;2023-07-31T13:56:36;2.40;;;1.23;;
9467;SDS011;4772;52.382;9.752;2023-07-31T13:59:03;1.33;;;1.20;;
9467;SDS011;4772;52.382;9.752;2023-07-31T14:01:29;1.33;;;1.00;;
9467;SDS011;4772;52.382;9.752;2023-07-31T14:03:55;2.03;;;0.97;;
9467;SDS011;4772;52.382;9.752;2023-07-31T14:06:21;2.00;;;1.30;;
9467;SDS011;4772;52.382;9.752;2023-07-31T14:08:47;1.20;;;1.10;;
9467;SDS011;4772;52.382;9.752;2023-07-31T14:11:13;1.33;;;1.23;;
9467;SDS011;4772;52.382;9.752;2023-07-31T14:13:38;0.90;;;0.90;;
9467;SDS011;4772;52.382;9.752;2023-07-31T14:16:05;1.10;;;1.00;;
9467;SDS011;4772;52.382;9.752;2023-07-31T14:18:31;1.30;;;1.20;;
9467;SDS011;4772;52.382;9.752;2023-07-31T14:20:57;1.40;;;1.30;;
9467;SDS011;4772;52.382;9.752;2023-07-31T14:23:23;3.00;;;1.40;;
9467;SDS011;4772;52.382;9.752;2023-07-31T14:25:49;1.20;;;1.10;;
9467;SDS011;4772;52.382;9.752;2023-07-31T14:28:15;1.40;;;1.30;;
9467;SDS011;4772;52.382;9.752;2023-07-31T14:30:41;1.63;;;1.23;;
9467;SDS011;4772;52.382;9.752;2023-07-31T14:33:07;1.50;;;1.40;;
9467;SDS011;4772;52.382;9.752;2023-07-31T14:35:34;2.83;;;1.70;;
9467;SDS011;4772;52.382;9.752;2023-07-31T14:38:00;1.83;;;1.73;;
9467;SDS011;4772;52.382;9.752;2023-07-31T14:40:26;2.33;;;2.03;;
9467;SDS011;4772;52.382;9.752;2023-07-31T14:42:52;2.30;;;2.10;;
9467;SDS011;4772;52.382;9.752;2023-07-31T14:45:18;4.23;;;2.80;;
9467;SDS011;4772;52.382;9.752;2023-07-31T14:47:44;3.33;;;2.23;;
9467;SDS011;4772;52.382;9.752;2023-07-31T14:50:10;2.80;;;2.43;;
9467;SDS011;4772;52.382;9.752;2023-07-31T14:52:36;3.70;;;2.37;;
9467;SDS011;4772;52.382;9.752;2023-07-31T14:55:03;2.77;;;2.57;;
9467;SDS011;4772;52.382;9.752;2023-07-31T14:57:29;3.27;;;2.97;;
9467;SDS011;4772;52.382;9.752;2023-07-31T14:59:55;4.00;;;3.00;;
9467;SDS011;4772;52.382;9.752;2023-07-31T15:02:21;3.17;;;2.50;;
9467;SDS011;4772;52.382;9.752;2023-07-31T15:04:47;3.40;;;2.63;;
9467;SDS011;4772;52.382;9.752;2023-07-31T15:07:13;3.00;;;2.70;;
9467;SDS011;4772;52.382;9.752;2023-07-31T15:09:39;3.37;;;3.07;;
9467;SDS011;4772;52.382;9.752;2023-07-31T15:12:06;2.90;;;2.60;;
9467;SDS011;4772;52.382;9.752;2023-07-31T15:14:32;3.23;;;2.90;;
9467;SDS011;4772;52.382;9.752;2023-07-31T15:16:59;2.80;;;2.60;;
9467;SDS011;4772;52.382;9.752;2023-07-31T15:19:25;5.13;;;3.00;;